Time;durP1;ratioP1;P1;durP2;ratioP2;P2;SDS_P1;SDS_P2;PMS_P1;PMS_P2;Temp;Humidity;BMP_temperature;BMP_pressure;BME280_temperature;BME280_humidity;BME280_pressure;Samples;Min_cycle;Max_cycle;Signal;HPM_P1;HPM_P2
2020/12/30 00:00:22;;;;;;;9.60;6.00;;;3.80;99.90;;;;;;5029698;28;20223;-42
2020/12/30 00:02:48;;;;;;;6.60;5.77;;;3.90;99.90;;;;;;5012513;28;20637;-42
2020/12/30 00:05:15;;;;;;;6.47;5.63;;;3.90;99.90;;;;;;5030142;28;20236;-42
2020/12/30 00:07:41;;;;;;;13.33;6.27;;;4.00;99.90;;;;;;5028711;28;20313;-43
2020/12/30 00:10:11;;;;;;;6.70;5.93;;;3.90;99.90;;;;;;5010666;28;20211;-42
2020/12/30 00:12:39;;;;;;;6.80;6.20;;;3.90;99.90;;;;;;5031008;28;20202;-42
2020/12/30 00:15:09;;;;;;;8.70;6.93;;;3.90;99.90;;;;;;5030576;28;20282;-43
2020/12/30 00:17:39;;;;;;;6.13;5.53;;;3.90;99.90;;;;;;5031529;28;20210;-42
2020/12/30 00:20:07;;;;;;;6.50;5.93;;;4.00;99.90;;;;;;5031271;28;20218;-42
2020/12/30 00:22:33;;;;;;;8.43;6.50;;;4.10;99.90;;;;;;5031025;28;20306;-42
2020/12/30 00:25:00;;;;;;;8.13;6.97;;;4.10;99.90;;;;;;5030643;28;20353;-42
2020/12/30 00:27:27;;;;;;;9.50;6.73;;;4.10;99.90;;;;;;5030253;28;20231;-42
2020/12/30 00:29:54;;;;;;;8.70;7.30;;;4.20;99.90;;;;;;5030531;28;20273;-42
2020/12/30 00:32:20;;;;;;;9.87;6.83;;;4.20;99.90;;;;;;5030496;28;20222;-42
2020/12/30 00:34:48;;;;;;;7.07;6.37;;;4.30;99.90;;;;;;5031638;28;20218;-41
2020/12/30 00:37:15;;;;;;;7.53;5.83;;;4.20;99.90;;;;;;5030714;28;20602;-42
2020/12/30 00:39:41;;;;;;;7.33;5.90;;;4.10;99.90;;;;;;5031040;28;20843;-42
2020/12/30 00:42:08;;;;;;;9.53;6.03;;;4.20;99.90;;;;;;5029607;28;20222;-41
2020/12/30 00:44:35;;;;;;;6.70;6.10;;;4.20;99.90;;;;;;5028449;28;20214;-42
2020/12/30 00:47:02;;;;;;;6.90;6.20;;;4.20;99.90;;;;;;5032505;28;20760;-41
2020/12/30 00:49:28;;;;;;;6.33;5.03;;;4.20;99.90;;;;;;5032747;28;20234;-43
2020/12/30 00:51:57;;;;;;;6.43;5.80;;;4.20;99.90;;;;;;5032497;28;20220;-42
2020/12/30 00:54:29;;;;;;;7.07;6.47;;;4.20;99.90;;;;;;5032236;28;20204;-42
2020/12/30 00:56:56;;;;;;;8.87;6.83;;;4.10;99.90;;;;;;5031412;28;20218;-42
2020/12/30 00:59:27;;;;;;;7.03;6.07;;;4.00;99.90;;;;;;5013630;28;20192;-43
2020/12/30 01:01:56;;;;;;;6.70;5.67;;;4.00;99.90;;;;;;5014883;28;20602;-43
2020/12/30 01:04:32;;;;;;;9.03;6.50;;;4.10;99.90;;;;;;5015985;28;20288;-42
2020/12/30 01:06:59;;;;;;;7.77;6.97;;;4.00;99.90;;;;;;5032786;28;20318;-42
2020/12/30 01:09:27;;;;;;;6.50;5.87;;;4.10;99.90;;;;;;5036067;28;20302;-40
2020/12/30 01:11:54;;;;;;;10.03;5.70;;;4.00;99.90;;;;;;5034423;28;20221;-40
2020/12/30 01:14:21;;;;;;;10.03;7.37;;;4.10;99.90;;;;;;5033714;28;20207;-40
2020/12/30 01:16:49;;;;;;;8.83;6.77;;;4.10;99.90;;;;;;5033100;28;20191;-42
2020/12/30 01:19:17;;;;;;;10.13;6.73;;;4.00;99.90;;;;;;5031925;28;20227;-43
2020/12/30 01:21:44;;;;;;;5.87;5.37;;;4.00;99.90;;;;;;5031217;28;20545;-40
2020/12/30 01:24:10;;;;;;;7.63;5.93;;;4.00;99.90;;;;;;5030845;28;20670;-41
2020/12/30 01:26:38;;;;;;;10.37;6.93;;;4.00;99.90;;;;;;5033145;28;20219;-40
2020/12/30 01:29:05;;;;;;;10.83;7.27;;;3.90;99.90;;;;;;5030854;28;20286;-41
2020/12/30 01:31:33;;;;;;;8.20;6.20;;;3.90;99.90;;;;;;5032578;28;20223;-41
2020/12/30 01:34:00;;;;;;;8.37;5.77;;;3.90;99.90;;;;;;5024418;28;20192;-40
2020/12/30 01:36:28;;;;;;;14.30;6.23;;;3.80;99.90;;;;;;5027584;28;20688;-40
2020/12/30 01:38:55;;;;;;;6.60;5.90;;;3.80;99.90;;;;;;5022512;28;20192;-40
2020/12/30 01:41:22;;;;;;;10.13;6.57;;;3.70;99.90;;;;;;5019443;28;20318;-42
2020/12/30 01:44:04;;;;;;;7.63;6.93;;;3.70;99.90;;;;;;5022974;28;20650;-40
2020/12/30 01:46:39;;;;;;;6.90;6.17;;;3.60;99.90;;;;;;5023881;28;20243;-43
2020/12/30 01:49:08;;;;;;;7.20;6.50;;;3.60;99.90;;;;;;5031761;28;20732;-40
2020/12/30 01:51:39;;;;;;;7.50;6.20;;;3.50;99.90;;;;;;5023265;28;20303;-39
2020/12/30 01:54:06;;;;;;;10.40;7.50;;;3.50;99.90;;;;;;5023237;28;20246;-39
2020/12/30 01:56:33;;;;;;;10.47;6.80;;;3.40;99.90;;;;;;5023800;28;20229;-39
2020/12/30 01:59:05;;;;;;;7.87;7.13;;;3.40;99.90;;;;;;5026411;28;20312;-42
2020/12/30 02:01:35;;;;;;;9.00;6.80;;;3.30;99.90;;;;;;5024206;28;20277;-40
2020/12/30 02:04:04;;;;;;;8.13;6.93;;;3.30;99.90;;;;;;5025324;28;20223;-39
2020/12/30 02:06:31;;;;;;;8.63;6.60;;;3.30;99.90;;;;;;5006697;28;20294;-42
2020/12/30 02:08:59;;;;;;;8.33;7.17;;;3.30;99.90;;;;;;5027223;28;20206;-40
2020/12/30 02:11:27;;;;;;;6.93;6.23;;;3.20;99.90;;;;;;5026458;28;20717;-40
2020/12/30 02:14:07;;;;;;;6.87;6.27;;;3.30;99.90;;;;;;5025062;28;20196;-39
2020/12/30 02:16:47;;;;;;;9.27;7.27;;;3.30;99.90;;;;;;5023603;28;20278;-41
2020/12/30 02:19:13;;;;;;;8.00;7.00;;;3.30;99.90;;;;;;5031796;28;20690;-41
2020/12/30 02:21:40;;;;;;;8.50;6.90;;;3.30;99.90;;;;;;5032619;28;20273;-40
2020/12/30 02:24:10;;;;;;;7.80;6.97;;;3.30;99.90;;;;;;5019838;28;20207;-40
2020/12/30 02:26:38;;;;;;;13.47;7.93;;;3.30;99.90;;;;;;5031825;28;20269;-40
2020/12/30 02:29:05;;;;;;;8.27;7.40;;;3.40;99.90;;;;;;5030619;28;20204;-40
2020/12/30 02:31:31;;;;;;;8.00;7.00;;;3.40;99.90;;;;;;5031532;28;20282;-41
2020/12/30 02:33:57;;;;;;;8.23;6.37;;;3.40;99.90;;;;;;5022177;28;20283;-40
2020/12/30 02:36:24;;;;;;;7.43;6.63;;;3.40;99.90;;;;;;5027783;28;20199;-41
2020/12/30 02:38:54;;;;;;;11.53;7.33;;;3.40;99.90;;;;;;5031307;28;20227;-40
2020/12/30 02:41:21;;;;;;;8.88;6.45;;;3.40;99.90;;;;;;5015672;28;20224;-40
2020/12/30 02:43:49;;;;;;;8.30;7.20;;;3.50;99.90;;;;;;5012937;28;20296;-42
2020/12/30 02:46:15;;;;;;;7.43;6.53;;;3.60;99.90;;;;;;5032631;28;20207;-41
2020/12/30 02:48:42;;;;;;;6.97;6.27;;;3.60;99.90;;;;;;5030640;28;20207;-42
2020/12/30 02:51:08;;;;;;;8.00;7.07;;;3.60;99.90;;;;;;5028460;28;20223;-40
2020/12/30 02:53:35;;;;;;;7.73;5.83;;;3.70;99.90;;;;;;5012078;28;20207;-40
2020/12/30 02:56:01;;;;;;;7.50;6.65;;;3.80;99.90;;;;;;5020591;28;20208;-41
2020/12/30 02:58:28;;;;;;;7.38;6.40;;;3.70;99.90;;;;;;5045482;28;20589;-40
2020/12/30 03:00:55;;;;;;;5.90;5.40;;;3.60;99.90;;;;;;5050989;28;20234;-40
2020/12/30 03:03:22;;;;;;;7.40;6.20;;;3.40;99.90;;;;;;5039996;28;20210;-41
2020/12/30 03:05:48;;;;;;;6.60;5.67;;;3.30;99.90;;;;;;5033261;28;20277;-41
2020/12/30 03:08:15;;;;;;;6.83;5.87;;;3.30;99.90;;;;;;5030724;28;20311;-40
2020/12/30 03:10:41;;;;;;;6.30;5.70;;;3.20;99.90;;;;;;5024696;28;20219;-40
2020/12/30 03:13:08;;;;;;;5.90;5.30;;;3.20;99.90;;;;;;5027726;28;20725;-44
2020/12/30 03:15:34;;;;;;;6.87;6.17;;;3.10;99.90;;;;;;5031363;28;20200;-42
2020/12/30 03:18:02;;;;;;;7.27;6.57;;;3.20;99.90;;;;;;5030604;28;20595;-38
2020/12/30 03:20:28;;;;;;;11.37;6.63;;;3.30;99.90;;;;;;5011896;28;20703;-44
2020/12/30 03:22:55;;;;;;;6.80;6.20;;;3.40;99.90;;;;;;5030988;28;20199;-40
2020/12/30 03:25:21;;;;;;;7.27;6.53;;;3.40;99.90;;;;;;5031662;28;20258;-40
2020/12/30 03:27:48;;;;;;;6.90;6.30;;;3.40;99.90;;;;;;5023563;28;20219;-39
2020/12/30 03:30:14;;;;;;;8.47;7.53;;;3.40;99.90;;;;;;5017648;28;20207;-39
2020/12/30 03:32:41;;;;;;;7.20;6.50;;;3.50;99.90;;;;;;5011575;28;20806;-41
2020/12/30 03:35:08;;;;;;;9.90;6.70;;;3.50;99.90;;;;;;5016640;28;20590;-41
2020/12/30 03:37:35;;;;;;;7.33;5.80;;;3.50;99.90;;;;;;5030127;28;20220;-39
2020/12/30 03:40:01;;;;;;;7.17;5.70;;;3.50;99.90;;;;;;5023838;28;20640;-40
2020/12/30 03:42:28;;;;;;;8.97;6.80;;;3.40;99.90;;;;;;5014529;28;20240;-44
2020/12/30 03:44:54;;;;;;;6.47;5.37;;;3.30;99.90;;;;;;5027792;28;20210;-40
2020/12/30 03:47:21;;;;;;;7.17;6.50;;;3.20;99.90;;;;;;5033836;28;20230;-39
2020/12/30 03:49:48;;;;;;;7.37;5.80;;;3.20;99.90;;;;;;5033607;28;20204;-39
2020/12/30 03:52:16;;;;;;;7.93;6.10;;;3.30;99.90;;;;;;5036334;28;20228;-43
2020/12/30 03:54:43;;;;;;;8.07;6.53;;;3.20;99.90;;;;;;5026964;28;20728;-41
2020/12/30 03:57:09;;;;;;;9.20;7.53;;;3.20;99.90;;;;;;5013225;28;20207;-41
2020/12/30 03:59:36;;;;;;;9.17;6.73;;;3.20;99.90;;;;;;5021336;28;20299;-42
2020/12/30 04:02:02;;;;;;;9.03;6.90;;;3.10;99.90;;;;;;5033019;28;20220;-41
2020/12/30 04:04:28;;;;;;;9.27;6.63;;;3.10;99.90;;;;;;5028951;28;20207;-40
2020/12/30 04:06:55;;;;;;;7.57;6.17;;;3.20;99.90;;;;;;5010979;28;20334;-43
2020/12/30 04:09:22;;;;;;;11.30;7.00;;;3.10;99.90;;;;;;5010902;28;20652;-40
2020/12/30 04:11:49;;;;;;;7.03;6.33;;;3.10;99.90;;;;;;5011248;28;20576;-40
2020/12/30 04:14:15;;;;;;;7.83;6.47;;;3.00;99.90;;;;;;5015631;28;20238;-43
2020/12/30 04:16:42;;;;;;;12.97;7.30;;;3.10;99.90;;;;;;5030595;28;20272;-40
2020/12/30 04:19:09;;;;;;;8.87;7.03;;;3.00;99.90;;;;;;5030845;28;20196;-40
2020/12/30 04:21:35;;;;;;;8.83;7.30;;;3.00;99.90;;;;;;5022549;28;20220;-39
2020/12/30 04:24:02;;;;;;;7.30;6.60;;;3.00;99.90;;;;;;5016122;28;20208;-40
2020/12/30 04:26:29;;;;;;;7.47;6.77;;;3.10;99.90;;;;;;5030514;28;20246;-42
2020/12/30 04:28:56;;;;;;;8.50;6.40;;;2.90;99.90;;;;;;5033797;28;20245;-39
2020/12/30 04:31:22;;;;;;;13.37;6.77;;;2.90;99.90;;;;;;5034940;28;20224;-39
2020/12/30 04:33:49;;;;;;;8.80;6.93;;;2.80;99.90;;;;;;5033408;28;20210;-42
2020/12/30 04:36:15;;;;;;;10.50;7.37;;;2.80;99.90;;;;;;5015434;28;20200;-42
2020/12/30 04:38:42;;;;;;;11.53;7.73;;;2.70;99.90;;;;;;5020100;28;20242;-40
2020/12/30 04:41:11;;;;;;;13.67;6.77;;;2.70;99.90;;;;;;5022931;28;20273;-41
2020/12/30 04:43:42;;;;;;;7.68;6.88;;;2.70;99.90;;;;;;5039046;28;20215;-43
2020/12/30 04:46:12;;;;;;;7.87;7.00;;;2.70;99.90;;;;;;5042843;28;20666;-39
2020/12/30 04:48:40;;;;;;;7.47;6.67;;;2.90;99.90;;;;;;5042802;28;20579;-40
2020/12/30 04:51:07;;;;;;;7.73;6.40;;;2.70;99.90;;;;;;5032565;28;20609;-40
2020/12/30 04:53:35;;;;;;;7.73;6.93;;;2.70;99.90;;;;;;5033303;28;20200;-40
2020/12/30 04:56:02;;;;;;;11.20;7.40;;;2.60;99.90;;;;;;5033984;28;20192;-40
2020/12/30 04:58:30;;;;;;;8.53;6.57;;;2.70;99.90;;;;;;5027110;28;20196;-40
2020/12/30 05:00:59;;;;;;;7.87;6.20;;;2.70;99.90;;;;;;5024487;23;20235;-42
2020/12/30 05:03:28;;;;;;;8.53;7.63;;;2.70;99.90;;;;;;4995543;28;20300;-42
2020/12/30 05:05:55;;;;;;;8.03;7.23;;;2.70;99.90;;;;;;4994065;28;20222;-41
2020/12/30 05:08:22;;;;;;;8.20;6.57;;;2.60;99.90;;;;;;4992119;28;20252;-42
2020/12/30 05:10:52;;;;;;;11.53;7.57;;;2.50;99.90;;;;;;4990384;28;20301;-40
2020/12/30 05:13:19;;;;;;;9.33;8.10;;;2.60;99.90;;;;;;4990119;28;20209;-41
2020/12/30 05:15:46;;;;;;;9.63;7.77;;;2.60;99.90;;;;;;4994381;28;20424;-42
2020/12/30 05:18:13;;;;;;;8.47;7.57;;;2.60;99.90;;;;;;4990208;28;20372;-42
2020/12/30 05:20:40;;;;;;;9.17;7.90;;;2.60;99.90;;;;;;4992823;28;20304;-42
2020/12/30 05:23:07;;;;;;;7.97;7.17;;;2.40;99.90;;;;;;4992569;28;20291;-43
2020/12/30 05:25:35;;;;;;;8.43;7.17;;;2.50;99.90;;;;;;4993797;28;20267;-42
2020/12/30 05:28:04;;;;;;;6.70;5.97;;;2.40;99.90;;;;;;4993324;28;20571;-43
2020/12/30 05:30:30;;;;;;;11.93;7.70;;;2.40;99.90;;;;;;4993262;28;20302;-42
2020/12/30 05:32:57;;;;;;;8.60;6.70;;;2.40;99.90;;;;;;4990805;28;20205;-43
2020/12/30 05:35:25;;;;;;;7.97;7.23;;;2.30;99.90;;;;;;4993605;28;20723;-43
2020/12/30 05:37:52;;;;;;;11.20;6.93;;;2.30;99.90;;;;;;4993144;28;20207;-43
2020/12/30 05:40:20;;;;;;;10.10;7.87;;;2.20;99.90;;;;;;4993355;28;20702;-42
2020/12/30 05:42:47;;;;;;;8.07;7.10;;;2.20;99.90;;;;;;4991787;28;20215;-42
2020/12/30 05:45:18;;;;;;;8.53;6.83;;;2.20;99.90;;;;;;4993160;28;20229;-43
2020/12/30 05:47:44;;;;;;;8.90;6.77;;;2.20;99.90;;;;;;4993272;28;20312;-42
2020/12/30 05:50:12;;;;;;;8.03;6.40;;;2.20;99.90;;;;;;4992876;28;20231;-43
2020/12/30 05:52:40;;;;;;;7.87;6.77;;;2.20;99.90;;;;;;4991850;28;20209;-42
2020/12/30 05:55:09;;;;;;;7.60;6.80;;;2.30;99.90;;;;;;4995832;28;20224;-43
2020/12/30 05:57:36;;;;;;;9.33;6.63;;;2.30;99.90;;;;;;4992523;28;20193;-42
2020/12/30 06:00:07;;;;;;;11.73;6.07;;;2.40;99.90;;;;;;4976067;28;20480;-43
2020/12/30 06:02:42;;;;;;;10.20;6.33;;;2.30;99.90;;;;;;4992049;28;20213;-42
2020/12/30 06:05:12;;;;;;;7.83;7.03;;;2.30;99.90;;;;;;4993105;28;20676;-43
2020/12/30 06:07:41;;;;;;;9.60;6.40;;;2.30;99.90;;;;;;4992815;28;20260;-44
2020/12/30 06:10:10;;;;;;;8.97;6.37;;;2.20;99.90;;;;;;4993176;28;20232;-43
2020/12/30 06:12:44;;;;;;;7.60;6.47;;;2.20;99.90;;;;;;4991753;28;20755;-43
2020/12/30 06:15:14;;;;;;;7.87;6.80;;;2.00;99.90;;;;;;4993062;28;20204;-42
2020/12/30 06:17:55;;;;;;;7.83;6.97;;;2.00;99.90;;;;;;4992681;28;20746;-43
2020/12/30 06:20:25;;;;;;;7.53;6.83;;;2.00;99.90;;;;;;4992769;28;20201;-43
2020/12/30 06:22:55;;;;;;;7.03;6.00;;;1.90;99.90;;;;;;4992150;28;20284;-43
2020/12/30 06:25:24;;;;;;;6.83;6.10;;;1.90;99.90;;;;;;4992648;28;20209;-42
2020/12/30 06:27:52;;;;;;;7.40;6.23;;;1.90;99.90;;;;;;4992706;28;20217;-43
2020/12/30 06:30:19;;;;;;;6.53;5.80;;;2.00;99.90;;;;;;4992331;28;20281;-43
2020/12/30 06:32:45;;;;;;;10.00;6.03;;;1.90;99.90;;;;;;4990744;28;20673;-43
2020/12/30 06:35:13;;;;;;;8.13;6.67;;;1.80;99.90;;;;;;4992544;28;20296;-42
2020/12/30 06:37:41;;;;;;;7.73;6.60;;;1.70;99.90;;;;;;4991893;28;20197;-42
2020/12/30 06:40:20;;;;;;;8.10;6.37;;;1.70;99.90;;;;;;4992227;28;20208;-42
2020/12/30 06:42:49;;;;;;;9.73;7.03;;;1.70;99.90;;;;;;4991650;28;20200;-42
2020/12/30 06:45:36;;;;;;;8.03;5.57;;;1.70;99.90;;;;;;4991530;28;20212;-42
2020/12/30 06:48:03;;;;;;;9.80;5.50;;;1.80;99.90;;;;;;4992157;28;20705;-43
2020/12/30 06:50:29;;;;;;;7.17;6.47;;;1.80;99.90;;;;;;4991520;28;20225;-43
2020/12/30 06:52:56;;;;;;;9.70;6.10;;;1.80;99.90;;;;;;4991043;28;20199;-43
2020/12/30 06:55:45;;;;;;;7.30;5.63;;;1.70;99.90;;;;;;4992459;28;20207;-43
2020/12/30 06:58:43;;;;;;;7.73;5.70;;;1.80;99.90;;;;;;4989279;28;20221;-43
2020/12/30 07:01:10;;;;;;;6.90;6.07;;;1.80;99.90;;;;;;4991731;28;20371;-43
2020/12/30 07:03:36;;;;;;;7.70;6.73;;;1.80;99.90;;;;;;4990714;28;20248;-42
2020/12/30 07:06:26;;;;;;;6.87;6.17;;;2.00;99.90;;;;;;4992175;28;20225;-42
2020/12/30 07:08:54;;;;;;;7.50;6.23;;;1.90;99.90;;;;;;4985783;28;20751;-43
2020/12/30 07:11:49;;;;;;;7.47;6.60;;;1.90;99.90;;;;;;4991348;28;20240;-42
2020/12/30 07:14:18;;;;;;;6.53;5.83;;;2.00;99.90;;;;;;4991840;28;20216;-42
2020/12/30 07:16:50;;;;;;;6.80;6.07;;;1.90;99.90;;;;;;4992260;28;20201;-42
2020/12/30 07:19:19;;;;;;;7.70;6.17;;;1.90;99.90;;;;;;4991888;28;20307;-42
2020/12/30 07:21:51;;;;;;;8.70;6.67;;;1.90;99.90;;;;;;4992139;28;20308;-42
2020/12/30 07:24:21;;;;;;;6.80;6.10;;;1.90;99.90;;;;;;4991984;28;20287;-43
2020/12/30 07:26:52;;;;;;;7.33;6.27;;;1.90;99.90;;;;;;4991601;28;21036;-43
2020/12/30 07:29:19;;;;;;;6.30;5.70;;;1.90;99.90;;;;;;4976860;28;20213;-43
2020/12/30 07:31:48;;;;;;;9.77;6.57;;;2.00;99.90;;;;;;4991946;28;20646;-41
2020/12/30 07:34:16;;;;;;;8.63;6.77;;;2.00;99.90;;;;;;4991594;28;20197;-43
2020/12/30 07:36:44;;;;;;;10.83;7.57;;;2.20;99.90;;;;;;4991930;28;20312;-42
2020/12/30 07:39:11;;;;;;;8.53;7.43;;;2.20;99.90;;;;;;4992052;28;20198;-43
2020/12/30 07:41:44;;;;;;;9.63;6.93;;;2.20;99.90;;;;;;4991792;28;20221;-42
2020/12/30 07:44:12;;;;;;;10.47;6.87;;;2.20;99.90;;;;;;4991823;28;20210;-42
2020/12/30 07:46:40;;;;;;;8.70;7.50;;;2.20;99.90;;;;;;4991223;28;20201;-42
2020/12/30 07:49:08;;;;;;;8.80;6.43;;;2.20;99.90;;;;;;4991376;28;20232;-42
2020/12/30 07:51:35;;;;;;;7.40;6.67;;;2.20;99.90;;;;;;4991462;28;20663;-42
2020/12/30 07:54:01;;;;;;;8.43;7.33;;;2.20;99.90;;;;;;4991149;28;20323;-44
2020/12/30 07:56:28;;;;;;;8.10;7.27;;;2.20;99.90;;;;;;4990623;28;20671;-43
2020/12/30 07:58:55;;;;;;;7.57;6.87;;;2.20;99.90;;;;;;4993631;28;20225;-42
2020/12/30 08:01:22;;;;;;;9.13;6.93;;;2.20;99.90;;;;;;4991011;28;20268;-42
2020/12/30 08:03:48;;;;;;;9.20;7.60;;;2.20;99.90;;;;;;4991118;28;20201;-43
2020/12/30 08:06:16;;;;;;;8.67;7.10;;;2.30;99.90;;;;;;4990851;28;20570;-42
2020/12/30 08:08:44;;;;;;;8.03;6.70;;;2.30;99.90;;;;;;4990405;28;20220;-43
2020/12/30 08:11:10;;;;;;;7.93;7.13;;;2.30;99.90;;;;;;4984197;28;20248;-42
2020/12/30 08:13:39;;;;;;;6.93;6.23;;;2.40;99.90;;;;;;4988802;28;20220;-43
2020/12/30 08:16:10;;;;;;;7.60;6.83;;;2.40;99.90;;;;;;4986321;28;20750;-42
2020/12/30 08:18:48;;;;;;;7.53;6.90;;;2.50;99.90;;;;;;4990076;28;20207;-42
2020/12/30 08:21:15;;;;;;;7.87;7.07;;;2.50;99.90;;;;;;4990844;28;20221;-42
2020/12/30 08:23:42;;;;;;;8.40;6.93;;;2.60;99.90;;;;;;4990565;28;20660;-42
2020/12/30 08:26:09;;;;;;;7.63;6.53;;;2.60;99.90;;;;;;4990793;28;20209;-43
2020/12/30 08:28:39;;;;;;;8.10;7.20;;;2.70;99.90;;;;;;4973040;28;20216;-43
2020/12/30 08:31:14;;;;;;;8.47;6.73;;;2.70;99.90;;;;;;4990671;28;20249;-42
2020/12/30 08:33:45;;;;;;;10.13;7.50;;;2.60;99.90;;;;;;4971765;28;20209;-43
2020/12/30 08:36:20;;;;;;;8.13;6.93;;;2.70;99.90;;;;;;4974849;28;20286;-42
2020/12/30 08:38:49;;;;;;;7.73;6.97;;;2.70;99.90;;;;;;4985706;28;20288;-43
2020/12/30 08:41:23;;;;;;;10.63;6.97;;;2.70;99.90;;;;;;4988480;28;20320;-42
2020/12/30 08:43:56;;;;;;;9.27;7.07;;;2.80;99.90;;;;;;4982315;28;20248;-43
2020/12/30 08:46:25;;;;;;;8.07;7.10;;;2.80;99.90;;;;;;4990284;28;20201;-43
2020/12/30 08:48:53;;;;;;;8.97;7.57;;;3.10;99.90;;;;;;4990022;28;20245;-42
2020/12/30 08:51:30;;;;;;;8.57;7.77;;;3.20;99.90;;;;;;4990408;28;20217;-43
2020/12/30 08:53:57;;;;;;;8.60;7.63;;;3.30;99.90;;;;;;4979290;28;20607;-43
2020/12/30 08:56:24;;;;;;;8.77;7.87;;;3.30;99.90;;;;;;4990789;28;20209;-42
2020/12/30 08:58:52;;;;;;;9.80;6.97;;;3.30;99.90;;;;;;4989379;28;20197;-43
2020/12/30 09:01:20;;;;;;;9.97;6.53;;;3.60;99.90;;;;;;4990625;28;20276;-44
2020/12/30 09:03:46;;;;;;;7.23;6.47;;;3.70;99.90;;;;;;4973203;28;20236;-43
2020/12/30 09:06:26;;;;;;;7.70;6.47;;;3.90;99.90;;;;;;4990755;28;20691;-44
2020/12/30 09:08:53;;;;;;;7.43;6.63;;;4.00;99.90;;;;;;4993627;28;20299;-42
2020/12/30 09:11:20;;;;;;;7.50;6.80;;;3.80;99.90;;;;;;4994289;28;20591;-43
2020/12/30 09:13:46;;;;;;;9.80;6.27;;;3.60;99.90;;;;;;4992561;28;20213;-43
2020/12/30 09:16:14;;;;;;;9.27;7.38;;;3.70;99.90;;;;;;4993422;28;20255;-43
2020/12/30 09:18:40;;;;;;;8.47;7.60;;;3.50;99.90;;;;;;4993667;28;20241;-44
2020/12/30 09:21:22;;;;;;;8.33;7.60;;;3.60;99.90;;;;;;4993718;28;20218;-43
2020/12/30 09:23:49;;;;;;;8.47;7.57;;;3.70;99.90;;;;;;4993618;28;20215;-43
2020/12/30 09:26:27;;;;;;;8.63;7.57;;;3.80;99.90;;;;;;4993861;28;20419;-42
2020/12/30 09:28:54;;;;;;;10.70;7.83;;;3.60;99.90;;;;;;4993054;28;20217;-42
2020/12/30 09:31:21;;;;;;;8.13;7.33;;;3.60;99.90;;;;;;4993642;28;20362;-43
2020/12/30 09:33:49;;;;;;;8.50;7.27;;;3.60;99.90;;;;;;4993013;28;20217;-43
2020/12/30 09:36:16;;;;;;;9.23;8.30;;;3.60;99.90;;;;;;4993578;28;20212;-43
2020/12/30 09:38:44;;;;;;;9.30;7.87;;;3.60;99.90;;;;;;4991969;28;20353;-42
2020/12/30 09:41:15;;;;;;;9.33;8.33;;;3.50;99.90;;;;;;4991790;28;20691;-43
2020/12/30 09:43:46;;;;;;;12.27;9.57;;;3.60;99.90;;;;;;4993362;28;20210;-43
2020/12/30 09:46:20;;;;;;;9.30;8.27;;;3.50;99.90;;;;;;4994306;28;20204;-43
2020/12/30 09:48:47;;;;;;;9.37;8.37;;;3.60;99.90;;;;;;4993855;28;20509;-42
2020/12/30 09:51:15;;;;;;;9.70;8.70;;;3.70;99.90;;;;;;4993492;28;20213;-44
2020/12/30 09:53:44;;;;;;;10.57;8.90;;;3.70;99.90;;;;;;4992822;28;20231;-43
2020/12/30 09:56:14;;;;;;;10.87;8.10;;;3.70;99.90;;;;;;4993229;28;20232;-43
2020/12/30 09:58:40;;;;;;;12.20;8.00;;;3.70;99.90;;;;;;4999106;28;20308;-43
2020/12/30 10:01:07;;;;;;;8.83;7.93;;;3.80;99.90;;;;;;4993156;28;20287;-43
2020/12/30 10:03:33;;;;;;;11.83;8.40;;;3.80;99.90;;;;;;4992987;28;20232;-43
2020/12/30 10:06:00;;;;;;;9.90;8.57;;;3.80;99.90;;;;;;4991510;28;20459;-42
2020/12/30 10:08:27;;;;;;;11.23;8.53;;;3.80;99.90;;;;;;4992135;28;20227;-44
2020/12/30 10:10:54;;;;;;;11.60;7.57;;;3.80;99.90;;;;;;4992090;28;20300;-43
2020/12/30 10:13:21;;;;;;;9.87;8.00;;;3.80;99.90;;;;;;4992415;28;20201;-43
2020/12/30 10:15:47;;;;;;;9.43;8.47;;;3.80;99.90;;;;;;4992996;28;20281;-43
2020/12/30 10:18:14;;;;;;;9.33;7.23;;;3.80;99.90;;;;;;4993149;28;20235;-43
2020/12/30 10:20:41;;;;;;;7.43;6.63;;;3.80;99.90;;;;;;4986733;28;20224;-42
2020/12/30 10:23:09;;;;;;;8.83;7.57;;;3.80;99.90;;;;;;4985700;28;20292;-43
2020/12/30 10:25:35;;;;;;;9.47;8.57;;;3.80;99.90;;;;;;4991215;28;20239;-42
2020/12/30 10:28:03;;;;;;;9.03;7.10;;;3.90;99.90;;;;;;4988831;28;20251;-42
2020/12/30 10:30:29;;;;;;;7.63;6.20;;;4.10;99.90;;;;;;4988229;28;20225;-42
2020/12/30 10:32:56;;;;;;;6.27;5.10;;;5.20;99.90;;;;;;4991622;28;20229;-42
2020/12/30 10:35:23;;;;;;;5.33;4.83;;;6.10;99.90;;;;;;4991147;28;20195;-43
2020/12/30 10:37:51;;;;;;;5.15;4.65;;;6.50;99.90;;;;;;4992348;28;20218;-43
2020/12/30 10:40:19;;;;;;;4.27;3.87;;;6.80;99.90;;;;;;4992488;28;20205;-42
2020/12/30 10:42:46;;;;;;;5.17;4.77;;;7.10;99.90;;;;;;4991521;28;20220;-42
2020/12/30 10:45:13;;;;;;;4.80;4.00;;;7.20;99.90;;;;;;4992228;28;20672;-43
2020/12/30 10:47:41;;;;;;;5.15;4.65;;;7.20;99.90;;;;;;4992452;28;20259;-43
2020/12/30 10:50:07;;;;;;;5.32;4.80;;;7.70;99.90;;;;;;4993294;28;20216;-43
2020/12/30 10:52:34;;;;;;;4.37;3.97;;;7.80;99.90;;;;;;4992096;28;20347;-44
2020/12/30 10:55:00;;;;;;;4.57;4.13;;;7.90;99.90;;;;;;4992115;28;20735;-43
2020/12/30 10:57:27;;;;;;;6.67;4.93;;;7.80;99.90;;;;;;4991985;28;20202;-43
2020/12/30 10:59:53;;;;;;;5.07;4.47;;;7.80;99.90;;;;;;4991680;28;20219;-42
2020/12/30 11:02:21;;;;;;;6.43;5.22;;;7.20;99.90;;;;;;4987327;28;20230;-43
2020/12/30 11:04:47;;;;;;;5.97;5.30;;;6.50;99.90;;;;;;4988927;28;20236;-43
2020/12/30 11:07:14;;;;;;;7.37;5.53;;;5.90;99.90;;;;;;4988119;28;20264;-43
2020/12/30 11:09:40;;;;;;;5.93;5.38;;;5.70;99.90;;;;;;4990989;28;20316;-43
2020/12/30 11:12:07;;;;;;;7.13;6.40;;;5.60;99.90;;;;;;4991249;28;20310;-45
2020/12/30 11:14:33;;;;;;;6.67;5.63;;;5.30;99.90;;;;;;4990629;28;20228;-44
2020/12/30 11:17:00;;;;;;;9.37;6.13;;;5.20;99.90;;;;;;4991642;28;20212;-44
2020/12/30 11:19:27;;;;;;;6.45;5.47;;;5.90;99.90;;;;;;4991720;28;20201;-42
2020/12/30 11:21:54;;;;;;;7.40;6.77;;;6.90;99.90;;;;;;4992434;28;20259;-43
2020/12/30 11:24:21;;;;;;;7.33;6.60;;;7.60;99.90;;;;;;4989770;28;20209;-44
2020/12/30 11:26:48;;;;;;;6.43;5.83;;;7.40;99.90;;;;;;4991254;28;20666;-43
2020/12/30 11:29:16;;;;;;;6.93;6.23;;;7.00;99.90;;;;;;4991126;28;20683;-43
2020/12/30 11:31:42;;;;;;;7.80;7.03;;;6.60;99.90;;;;;;4971789;28;20218;-43
2020/12/30 11:34:09;;;;;;;7.60;6.80;;;6.20;99.90;;;;;;4986967;28;20206;-41
2020/12/30 11:36:37;;;;;;;9.32;7.80;;;5.90;99.90;;;;;;4972822;28;20200;-43
2020/12/30 11:39:05;;;;;;;7.47;6.77;;;5.60;99.90;;;;;;4982672;28;20676;-42
2020/12/30 11:41:31;;;;;;;10.05;6.95;;;5.40;99.90;;;;;;4990496;28;20251;-43
2020/12/30 11:43:59;;;;;;;10.20;8.67;;;5.20;99.90;;;;;;4990240;28;20684;-43
2020/12/30 11:46:25;;;;;;;8.37;7.57;;;5.10;99.90;;;;;;4990522;28;20205;-43
2020/12/30 11:48:53;;;;;;;10.57;8.27;;;5.10;99.90;;;;;;4990576;28;20220;-43
2020/12/30 11:51:20;;;;;;;8.90;7.83;;;5.10;99.90;;;;;;4990961;28;20726;-43
2020/12/30 11:53:48;;;;;;;10.70;8.93;;;5.10;99.90;;;;;;4990435;28;20205;-45
2020/12/30 11:56:21;;;;;;;9.25;7.35;;;5.10;99.90;;;;;;4990958;28;20192;-42
2020/12/30 11:58:47;;;;;;;8.73;7.27;;;5.00;99.90;;;;;;4991802;28;20201;-42
2020/12/30 12:01:14;;;;;;;9.63;8.67;;;5.00;99.90;;;;;;4991978;28;20311;-43
2020/12/30 12:03:41;;;;;;;10.90;9.40;;;5.00;99.90;;;;;;4993205;28;20228;-42
2020/12/30 12:06:07;;;;;;;9.63;8.27;;;5.00;99.90;;;;;;4992911;28;20201;-45
2020/12/30 12:08:34;;;;;;;8.05;7.25;;;5.30;99.90;;;;;;4991381;28;20221;-43
2020/12/30 12:11:01;;;;;;;9.23;8.33;;;5.30;99.90;;;;;;4974887;28;20237;-43
2020/12/30 12:13:28;;;;;;;8.60;7.80;;;5.30;99.90;;;;;;4990127;28;20205;-41
2020/12/30 12:15:54;;;;;;;9.03;8.13;;;5.20;99.90;;;;;;5007811;28;20192;-43
2020/12/30 12:18:21;;;;;;;10.27;8.60;;;5.00;99.90;;;;;;4996035;28;20207;-43
2020/12/30 12:20:47;;;;;;;9.17;8.27;;;5.20;99.90;;;;;;5002088;28;20300;-43
2020/12/30 12:23:14;;;;;;;10.03;9.03;;;5.40;99.90;;;;;;4984514;28;20197;-42
2020/12/30 12:25:42;;;;;;;13.03;8.90;;;5.30;99.90;;;;;;4990386;28;20197;-44
2020/12/30 12:28:10;;;;;;;15.17;9.87;;;5.40;99.90;;;;;;4978549;28;20205;-43
2020/12/30 12:30:36;;;;;;;9.63;8.50;;;5.50;99.90;;;;;;5001152;28;20300;-43
2020/12/30 12:33:03;;;;;;;9.53;8.60;;;5.60;99.90;;;;;;4998595;28;20731;-43
2020/12/30 12:35:29;;;;;;;11.10;9.63;;;5.40;99.90;;;;;;5004002;28;20667;-44
2020/12/30 12:38:07;;;;;;;9.73;8.80;;;5.40;99.90;;;;;;4998463;28;20197;-44
2020/12/30 12:40:34;;;;;;;18.60;8.87;;;5.40;99.90;;;;;;4992655;28;20212;-42
2020/12/30 12:43:01;;;;;;;12.20;8.67;;;5.50;99.90;;;;;;5002009;28;20206;-42
2020/12/30 12:45:29;;;;;;;11.70;8.67;;;6.10;99.90;;;;;;4993555;28;20198;-43
2020/12/30 12:47:56;;;;;;;10.37;7.67;;;6.50;99.90;;;;;;4994794;28;20212;-43
2020/12/30 12:50:22;;;;;;;9.73;7.30;;;6.40;99.90;;;;;;4999092;28;20224;-43
2020/12/30 12:52:49;;;;;;;10.20;8.50;;;6.30;99.90;;;;;;4994199;28;20224;-45
2020/12/30 12:55:15;;;;;;;10.47;6.70;;;6.20;99.90;;;;;;4993688;28;20726;-43
2020/12/30 12:57:42;;;;;;;8.67;7.47;;;5.90;99.90;;;;;;5000459;28;20613;-43
2020/12/30 13:00:08;;;;;;;8.70;7.63;;;5.60;99.90;;;;;;5000583;28;20209;-43